Main page
Satellite images 15-day forecastsClimateMarine weather Cyclones Lightning AirportsFAQ Newsletter About
Weather : Europe Africa North America South America Asia Australia-Oceania Others
Languages Contact

Dortmund, Germany

latitude: 51-31N, longitude: 007-37E, elevation: 127 m


METAR: EDLW 161950Z 11006KT CAVOK 09/M00 Q1027
short-TAF: out of date (33250 hours)
long-TAF: EDLW 162050Z 1620/1718 CNL

Time: 23:51 (21:51 UTC)

Current weather observation

The report was made 2 hours and 1 minutes ago, at 19:50 UTC  
Wind 06 kt from east/southeast
Temperature 9°C
Humidity 53%
Pressure 1027 hPa
Visibility 10 km or more
no clouds below 1500 m and no cumulonimbus

Change units

The information on this site is subject to a disclaimer
Weather : Europe Africa North America South America Asia Australia-Oceania Others
Satellite images 15-day forecastsClimateMarine weather Cyclones Lightning AirportsFAQ Languages Contact Newsletter About